Time;durP1;ratioP1;P1;durP2;ratioP2;P2;SDS_P1;SDS_P2;PMS_P1;PMS_P2;Temp;Humidity;BMP_temperature;BMP_pressure;BME280_temperature;BME280_humidity;BME280_pressure;Samples;Min_cycle;Max_cycle;Signal;HPM_P1;HPM_P2
2022/05/05 00:00:01;;;;;;;6.23;5.63;;;19.50;37.70;;;;;;5094559;28;20503;-30
2022/05/05 00:02:27;;;;;;;5.80;4.77;;;19.50;38.00;;;;;;5094253;28;20893;-31
2022/05/05 00:04:52;;;;;;;5.97;4.63;;;19.50;37.70;;;;;;5094446;28;20459;-30
2022/05/05 00:07:18;;;;;;;7.67;5.70;;;19.50;37.50;;;;;;5094268;28;20199;-29
2022/05/05 00:09:44;;;;;;;6.20;5.27;;;19.60;37.30;;;;;;5093960;28;20571;-30
2022/05/05 00:14:55;;;;;;;6.70;5.40;;;19.60;37.30;;;;;;5094241;28;20225;-31
2022/05/05 00:17:21;;;;;;;7.28;5.15;;;19.60;37.40;;;;;;5094308;28;20180;-30
2022/05/05 00:19:46;;;;;;;5.53;4.30;;;19.60;37.70;;;;;;5093133;28;20245;-31
2022/05/05 00:22:12;;;;;;;6.07;4.47;;;19.60;37.10;;;;;;5093611;28;20180;-30
2022/05/05 00:24:38;;;;;;;6.70;5.27;;;19.60;36.90;;;;;;5093951;28;20179;-30
2022/05/05 00:27:06;;;;;;;5.93;5.20;;;19.60;37.10;;;;;;5094012;28;20207;-30
2022/05/05 00:29:32;;;;;;;7.97;5.80;;;19.50;37.40;;;;;;5093980;28;20249;-29
2022/05/05 00:31:57;;;;;;;6.38;4.90;;;19.50;37.70;;;;;;5093686;28;20163;-30
2022/05/05 00:34:23;;;;;;;6.90;4.23;;;19.50;37.60;;;;;;5093768;28;20164;-31
2022/05/05 00:36:49;;;;;;;7.50;5.47;;;19.50;37.50;;;;;;5093689;28;20448;-30
2022/05/05 00:39:14;;;;;;;8.10;6.10;;;19.50;37.60;;;;;;5093529;28;20172;-30
2022/05/05 00:41:47;;;;;;;6.67;4.80;;;19.50;38.30;;;;;;5093415;28;20167;-30
2022/05/05 00:44:14;;;;;;;9.63;5.05;;;19.40;37.80;;;;;;5093776;28;20198;-30
2022/05/05 00:46:45;;;;;;;6.05;4.95;;;19.50;37.70;;;;;;5093478;28;20626;-31
2022/05/05 00:49:11;;;;;;;6.32;5.18;;;19.40;37.70;;;;;;5093480;28;20172;-30
2022/05/05 00:51:36;;;;;;;7.10;5.10;;;19.50;37.80;;;;;;5093076;28;20214;-30
2022/05/05 00:54:03;;;;;;;6.93;5.83;;;19.50;38.00;;;;;;5093545;28;20659;-30
2022/05/05 00:56:29;;;;;;;7.25;6.03;;;19.40;38.10;;;;;;5093293;28;20221;-29
2022/05/05 00:58:56;;;;;;;8.75;5.70;;;19.40;38.40;;;;;;5093408;28;20176;-30
2022/05/05 01:01:22;;;;;;;7.80;5.75;;;19.40;38.10;;;;;;5093039;28;20271;-30
2022/05/05 01:03:49;;;;;;;5.18;4.25;;;19.50;37.90;;;;;;5093289;28;20309;-30
2022/05/05 01:06:16;;;;;;;8.48;6.15;;;19.40;37.70;;;;;;5093083;28;20523;-30
2022/05/05 01:08:43;;;;;;;6.00;4.82;;;19.50;37.60;;;;;;5093139;28;20210;-30
2022/05/05 01:11:09;;;;;;;7.90;6.00;;;19.50;37.90;;;;;;5092712;28;20215;-29
2022/05/05 01:13:42;;;;;;;8.20;5.70;;;19.50;38.20;;;;;;5093055;28;20168;-30
2022/05/05 01:16:10;;;;;;;7.32;4.88;;;19.50;37.80;;;;;;5093028;28;20395;-30
2022/05/05 01:18:36;;;;;;;7.47;6.18;;;19.50;37.60;;;;;;5092778;28;20543;-30
2022/05/05 01:21:03;;;;;;;6.57;5.32;;;19.50;38.30;;;;;;5092555;28;20209;-30
2022/05/05 01:23:29;;;;;;;6.55;5.15;;;19.40;38.10;;;;;;5093061;28;20248;-31
2022/05/05 01:28:43;;;;;;;9.23;6.45;;;19.40;38.10;;;;;;5092805;28;20211;-30
2022/05/05 01:31:09;;;;;;;6.93;4.43;;;19.40;38.20;;;;;;5092144;28;20180;-30
2022/05/05 01:33:35;;;;;;;9.38;6.38;;;19.40;38.30;;;;;;5092886;28;20176;-30
2022/05/05 01:36:02;;;;;;;6.13;5.10;;;19.40;38.40;;;;;;5092604;28;20563;-30
2022/05/05 01:38:35;;;;;;;9.60;6.13;;;19.40;38.60;;;;;;5092651;28;20972;-31
2022/05/05 01:41:03;;;;;;;5.50;4.60;;;19.30;38.50;;;;;;5092349;28;20210;-31
2022/05/05 01:43:29;;;;;;;6.53;5.80;;;19.30;39.00;;;;;;5092512;28;20176;-31
2022/05/05 01:45:55;;;;;;;9.70;6.23;;;19.30;39.10;;;;;;5092478;28;20686;-30
2022/05/05 01:48:20;;;;;;;6.90;5.13;;;19.30;38.90;;;;;;5092590;28;20199;-29
2022/05/05 01:50:48;;;;;;;6.00;5.20;;;19.20;39.20;;;;;;5092075;28;20644;-29
2022/05/05 01:53:14;;;;;;;10.02;5.82;;;19.20;39.00;;;;;;5092461;28;20156;-29
2022/05/05 01:55:40;;;;;;;6.95;5.40;;;19.20;38.60;;;;;;5092390;28;20172;-29
2022/05/05 01:58:06;;;;;;;7.32;5.95;;;19.20;38.60;;;;;;5092307;28;20172;-30
2022/05/05 02:00:32;;;;;;;8.27;5.93;;;19.20;39.30;;;;;;5092034;28;20200;-30
2022/05/05 02:02:59;;;;;;;7.70;5.38;;;19.20;39.50;;;;;;5092451;28;20175;-29
2022/05/05 02:05:24;;;;;;;9.57;6.53;;;19.10;39.20;;;;;;5092209;28;20259;-31
2022/05/05 02:07:50;;;;;;;6.53;5.57;;;19.10;39.50;;;;;;5092260;28;20329;-30
2022/05/05 02:10:17;;;;;;;9.47;5.90;;;19.10;39.00;;;;;;5092035;28;20295;-29
2022/05/05 02:12:45;;;;;;;7.05;5.57;;;19.20;38.90;;;;;;5091927;28;20214;-29
2022/05/05 02:15:12;;;;;;;10.05;7.18;;;19.10;39.20;;;;;;5092170;28;20241;-30
2022/05/05 02:17:40;;;;;;;8.60;6.93;;;19.20;39.40;;;;;;5092074;28;20661;-30
2022/05/05 02:20:07;;;;;;;14.98;7.18;;;19.20;39.00;;;;;;5091953;28;20199;-30
2022/05/05 02:22:33;;;;;;;9.05;6.40;;;19.10;39.50;;;;;;5091973;28;20213;-29
2022/05/05 02:25:00;;;;;;;9.00;5.30;;;19.10;39.70;;;;;;5092048;28;20245;-30
2022/05/05 02:27:26;;;;;;;8.38;5.28;;;19.10;40.40;;;;;;5091834;28;20442;-29
2022/05/05 02:29:53;;;;;;;10.67;6.47;;;19.00;40.20;;;;;;5092136;28;20291;-29
2022/05/05 02:32:19;;;;;;;7.15;6.45;;;19.00;40.60;;;;;;5091718;28;20406;-29
2022/05/05 02:34:46;;;;;;;7.75;6.18;;;18.90;40.50;;;;;;5091917;28;20171;-30
2022/05/05 02:39:57;;;;;;;7.07;5.18;;;18.90;39.90;;;;;;5092061;28;20664;-30
2022/05/05 02:42:22;;;;;;;8.33;6.67;;;18.90;39.70;;;;;;5091918;28;20204;-29
2022/05/05 02:44:48;;;;;;;12.50;7.60;;;18.90;39.50;;;;;;5095219;28;20410;-30
2022/05/05 02:47:14;;;;;;;7.63;6.73;;;19.00;39.40;;;;;;5095771;28;20688;-29
2022/05/05 02:49:40;;;;;;;8.10;6.40;;;19.00;39.30;;;;;;5095753;28;20183;-30
2022/05/05 02:52:06;;;;;;;7.50;5.50;;;18.90;39.70;;;;;;5095674;28;20675;-30
2022/05/05 02:54:50;;;;;;;10.90;6.88;;;18.90;39.50;;;;;;5095633;28;20405;-29
2022/05/05 02:57:23;;;;;;;9.77;6.78;;;18.90;39.30;;;;;;5095922;28;20184;-29
2022/05/05 02:59:55;;;;;;;12.98;8.70;;;18.90;39.90;;;;;;5095714;28;20554;-30
2022/05/05 03:02:23;;;;;;;8.25;6.25;;;18.80;40.20;;;;;;5095414;28;20179;-30
2022/05/05 03:04:49;;;;;;;9.18;6.63;;;18.80;39.90;;;;;;5095451;28;20173;-31
2022/05/05 03:07:15;;;;;;;8.82;6.85;;;18.80;40.30;;;;;;5095406;28;20246;-30
2022/05/05 03:09:41;;;;;;;10.10;7.07;;;18.70;40.80;;;;;;5095448;28;20227;-30
2022/05/05 03:12:08;;;;;;;9.60;6.35;;;18.70;40.60;;;;;;5095463;28;20401;-29
2022/05/05 03:14:34;;;;;;;8.73;5.47;;;18.60;40.50;;;;;;5095280;28;20183;-30
2022/05/05 03:17:00;;;;;;;10.23;7.70;;;18.50;41.20;;;;;;5095288;28;20255;-29
2022/05/05 03:19:26;;;;;;;8.07;5.67;;;18.50;41.20;;;;;;5095132;28;20202;-29
2022/05/05 03:21:55;;;;;;;11.00;8.07;;;18.50;41.40;;;;;;5095609;28;20680;-30
2022/05/05 03:24:21;;;;;;;9.15;6.88;;;18.50;41.20;;;;;;5095758;28;20172;-29
2022/05/05 03:26:47;;;;;;;8.17;5.80;;;18.50;41.80;;;;;;5095534;28;20788;-29
2022/05/05 03:29:13;;;;;;;12.93;7.20;;;18.40;41.40;;;;;;5095377;28;20658;-31
2022/05/05 03:31:39;;;;;;;7.03;4.40;;;18.40;41.50;;;;;;5094664;28;20742;-30
2022/05/05 03:34:05;;;;;;;16.08;7.55;;;18.40;40.90;;;;;;5094797;28;20202;-31
2022/05/05 03:36:31;;;;;;;10.05;5.97;;;18.40;40.60;;;;;;5094913;28;20160;-30
2022/05/05 03:38:57;;;;;;;9.17;6.83;;;18.40;40.30;;;;;;5095053;28;20220;-30
2022/05/05 03:41:23;;;;;;;8.73;6.57;;;18.40;40.90;;;;;;5094626;28;20418;-31
2022/05/05 03:43:49;;;;;;;8.17;6.53;;;18.40;40.70;;;;;;5094724;28;20255;-31
2022/05/05 03:46:15;;;;;;;10.98;6.38;;;18.40;40.20;;;;;;5094738;28;20875;-30
2022/05/05 03:48:41;;;;;;;7.70;6.20;;;18.30;40.20;;;;;;5094449;28;20231;-31
2022/05/05 03:51:07;;;;;;;8.00;6.40;;;18.30;40.10;;;;;;5094384;28;20777;-31
2022/05/05 03:53:33;;;;;;;7.00;6.20;;;18.30;40.40;;;;;;5094674;28;20168;-31
2022/05/05 03:55:59;;;;;;;10.27;5.30;;;18.30;40.50;;;;;;5094461;28;20394;-30
2022/05/05 03:58:26;;;;;;;9.38;5.97;;;18.20;40.50;;;;;;5094393;28;20180;-31
2022/05/05 04:00:52;;;;;;;10.60;6.70;;;18.10;40.60;;;;;;5094175;28;20191;-30
2022/05/05 04:03:33;;;;;;;12.83;6.83;;;18.10;41.20;;;;;;5094207;28;20229;-31
2022/05/05 04:06:06;;;;;;;9.27;6.22;;;18.00;40.70;;;;;;5094490;28;20527;-30
2022/05/05 04:08:33;;;;;;;7.57;6.20;;;18.00;41.00;;;;;;5094211;28;20324;-31
2022/05/05 04:11:00;;;;;;;8.68;6.53;;;17.90;41.00;;;;;;5093913;28;20227;-30
2022/05/05 04:13:26;;;;;;;8.40;5.82;;;18.00;41.70;;;;;;5094082;28;20275;-30
2022/05/05 04:15:52;;;;;;;9.20;6.57;;;17.90;42.20;;;;;;5094085;28;20176;-30
2022/05/05 04:18:18;;;;;;;12.90;6.70;;;17.90;42.20;;;;;;5094453;28;20180;-31
2022/05/05 04:20:44;;;;;;;8.60;6.30;;;17.90;42.00;;;;;;5093844;28;20196;-30
2022/05/05 04:23:10;;;;;;;8.47;6.73;;;17.90;42.30;;;;;;5094164;28;20320;-30
2022/05/05 04:25:40;;;;;;;12.30;6.80;;;17.90;42.30;;;;;;5093960;28;20492;-29
2022/05/05 04:28:07;;;;;;;8.80;5.63;;;18.00;42.30;;;;;;5093747;28;20287;-30
2022/05/05 04:30:33;;;;;;;16.25;6.05;;;18.00;42.60;;;;;;5093522;28;20190;-28
2022/05/05 04:32:59;;;;;;;11.00;6.50;;;18.10;42.60;;;;;;5093618;28;20180;-29
2022/05/05 04:35:25;;;;;;;9.03;5.40;;;18.10;43.00;;;;;;5093703;28;20171;-30
2022/05/05 04:37:50;;;;;;;10.07;7.27;;;18.10;43.50;;;;;;5093655;28;20176;-30
2022/05/05 04:40:16;;;;;;;9.00;6.80;;;18.20;43.10;;;;;;5093423;28;20196;-31
2022/05/05 04:42:41;;;;;;;7.33;5.97;;;18.20;42.50;;;;;;5093404;28;20222;-29
2022/05/05 04:45:08;;;;;;;10.00;7.10;;;18.30;42.30;;;;;;5093512;28;20175;-29
2022/05/05 04:47:33;;;;;;;11.65;6.70;;;18.30;42.40;;;;;;5093357;28;20666;-29
2022/05/05 04:49:59;;;;;;;8.57;6.47;;;18.40;42.40;;;;;;5093561;28;20195;-29
2022/05/05 04:52:25;;;;;;;8.60;7.50;;;18.40;43.00;;;;;;5093308;28;20304;-30
2022/05/05 04:54:54;;;;;;;9.10;6.50;;;18.40;42.30;;;;;;5093388;28;20645;-30
2022/05/05 04:57:19;;;;;;;9.05;6.82;;;18.50;43.00;;;;;;5093278;28;20252;-29
2022/05/05 04:59:45;;;;;;;8.83;6.37;;;18.60;42.60;;;;;;5093170;28;20685;-30
2022/05/05 05:02:11;;;;;;;7.63;6.70;;;18.60;43.10;;;;;;5093161;28;20196;-30
2022/05/05 05:04:37;;;;;;;9.03;6.83;;;18.60;42.60;;;;;;5093307;28;20401;-31
2022/05/05 05:07:03;;;;;;;10.53;7.43;;;18.70;42.90;;;;;;5092652;28;20202;-30
2022/05/05 05:09:29;;;;;;;12.30;8.30;;;18.70;43.00;;;;;;5092905;28;20543;-30
2022/05/05 05:11:55;;;;;;;13.00;7.87;;;18.80;42.60;;;;;;5092725;28;20398;-30
2022/05/05 05:14:20;;;;;;;10.73;9.00;;;18.80;42.70;;;;;;5092926;28;20409;-29
2022/05/05 05:16:46;;;;;;;7.97;7.10;;;18.90;43.20;;;;;;5092984;28;20429;-30
2022/05/05 05:19:12;;;;;;;10.40;8.37;;;18.90;43.00;;;;;;5092803;28;20259;-31
2022/05/05 05:21:37;;;;;;;10.40;7.87;;;18.90;42.90;;;;;;5092848;28;20195;-31
2022/05/05 05:24:04;;;;;;;11.70;7.97;;;19.00;42.70;;;;;;5092993;28;20183;-31
2022/05/05 05:26:29;;;;;;;10.13;8.45;;;19.10;42.70;;;;;;5092534;28;20260;-31
2022/05/05 05:28:55;;;;;;;12.90;8.17;;;19.10;42.60;;;;;;5092712;28;20262;-30
2022/05/05 05:31:21;;;;;;;11.53;8.43;;;19.10;42.90;;;;;;5092411;28;20188;-31
2022/05/05 05:33:48;;;;;;;12.75;8.13;;;19.10;43.20;;;;;;5092651;28;20658;-31
2022/05/05 05:36:14;;;;;;;13.13;8.52;;;19.10;43.70;;;;;;5092774;28;20188;-30
2022/05/05 05:38:39;;;;;;;12.00;8.90;;;19.00;43.50;;;;;;5092597;28;20187;-30
2022/05/05 05:41:05;;;;;;;15.53;9.57;;;18.90;43.70;;;;;;5092160;28;20449;-30
2022/05/05 05:43:31;;;;;;;11.53;8.23;;;18.90;44.00;;;;;;5092721;28;20414;-29
2022/05/05 05:45:57;;;;;;;12.17;9.23;;;18.90;44.70;;;;;;5092693;28;20547;-31
2022/05/05 05:48:22;;;;;;;12.77;8.80;;;18.80;44.40;;;;;;5092351;28;20555;-30
2022/05/05 05:50:48;;;;;;;16.97;9.43;;;18.90;44.30;;;;;;5092100;28;20199;-31
2022/05/05 05:53:13;;;;;;;13.30;8.53;;;19.00;44.40;;;;;;5092296;28;20187;-31
2022/05/05 05:55:39;;;;;;;11.07;7.50;;;19.00;44.60;;;;;;5092104;28;20176;-31
2022/05/05 05:58:05;;;;;;;14.90;10.87;;;19.00;44.40;;;;;;5092287;28;20255;-31
2022/05/05 06:00:32;;;;;;;13.30;9.00;;;19.00;44.10;;;;;;5092141;28;20188;-31
2022/05/05 06:05:42;;;;;;;19.13;11.07;;;19.10;45.00;;;;;;5092483;28;20647;-31
2022/05/05 06:08:08;;;;;;;15.40;9.17;;;19.10;44.60;;;;;;5091999;28;20264;-30
2022/05/05 06:10:33;;;;;;;13.47;9.77;;;19.10;44.70;;;;;;5091682;28;20196;-30
2022/05/05 06:12:59;;;;;;;12.60;8.63;;;19.20;44.40;;;;;;5092364;28;20670;-30
2022/05/05 06:15:26;;;;;;;12.80;9.47;;;19.20;44.60;;;;;;5092205;28;20199;-29
2022/05/05 06:17:52;;;;;;;12.10;8.35;;;19.20;44.90;;;;;;5092203;28;20182;-30
2022/05/05 06:20:18;;;;;;;12.90;9.37;;;19.20;44.30;;;;;;5094957;28;20192;-31
2022/05/05 06:22:43;;;;;;;19.20;9.48;;;19.20;44.70;;;;;;5095986;28;20402;-30
2022/05/05 06:25:13;;;;;;;13.00;8.83;;;19.20;44.50;;;;;;5096188;28;20653;-29
2022/05/05 06:27:40;;;;;;;14.75;9.68;;;19.20;44.50;;;;;;5096254;28;20231;-30
2022/05/05 06:30:10;;;;;;;12.05;7.88;;;19.20;44.70;;;;;;5096138;28;20613;-30
2022/05/05 06:32:36;;;;;;;13.52;9.77;;;19.10;44.60;;;;;;5095906;28;20168;-29
2022/05/05 06:35:02;;;;;;;13.07;7.40;;;19.10;44.50;;;;;;5096085;28;20168;-30
2022/05/05 06:37:28;;;;;;;12.23;7.95;;;19.20;44.70;;;;;;5095958;28;20168;-29
2022/05/05 06:39:54;;;;;;;13.17;8.67;;;19.20;44.60;;;;;;5096130;28;20212;-29
2022/05/05 06:42:20;;;;;;;12.83;8.93;;;19.20;44.60;;;;;;5095807;28;20657;-29
2022/05/05 06:44:45;;;;;;;12.60;8.50;;;19.30;44.10;;;;;;5095830;28;20437;-31
2022/05/05 06:47:11;;;;;;;10.40;7.80;;;19.20;44.40;;;;;;5095895;28;20281;-30
2022/05/05 06:49:37;;;;;;;11.13;7.87;;;19.20;44.50;;;;;;5095684;28;20192;-31
2022/05/05 06:52:03;;;;;;;18.17;7.50;;;19.20;44.50;;;;;;5094157;28;20182;-29
2022/05/05 06:54:29;;;;;;;11.25;7.53;;;19.20;44.10;;;;;;5095774;28;20414;-31
2022/05/05 06:56:55;;;;;;;12.27;8.67;;;19.30;44.00;;;;;;5095884;28;20180;-31
2022/05/05 06:59:22;;;;;;;16.15;8.40;;;19.40;44.00;;;;;;5095502;28;20897;-31
2022/05/05 07:01:53;;;;;;;10.80;7.05;;;19.30;43.70;;;;;;5095436;28;20235;-30
2022/05/05 07:07:11;;;;;;;13.20;7.30;;;19.20;44.10;;;;;;5095654;28;20253;-29
2022/05/05 07:12:22;;;;;;;12.65;9.07;;;19.20;44.10;;;;;;5095465;28;20183;-30
2022/05/05 07:14:48;;;;;;;13.20;9.20;;;19.20;44.10;;;;;;5095785;28;20170;-30
2022/05/05 07:17:14;;;;;;;12.77;8.53;;;19.30;44.50;;;;;;5095518;28;20406;-29
2022/05/05 07:19:40;;;;;;;12.32;8.95;;;19.30;44.20;;;;;;5095339;28;20422;-30
2022/05/05 07:22:07;;;;;;;11.13;7.15;;;19.40;44.10;;;;;;5094956;28;20176;-30
2022/05/05 07:24:33;;;;;;;9.55;7.07;;;19.40;44.40;;;;;;5095241;28;20554;-29
2022/05/05 07:27:00;;;;;;;9.32;6.60;;;19.40;43.70;;;;;;5095069;28;20208;-29
2022/05/05 07:29:26;;;;;;;8.80;6.82;;;19.30;43.70;;;;;;5094393;28;20524;-29
2022/05/05 07:31:51;;;;;;;9.87;7.13;;;19.30;44.00;;;;;;5094827;28;20229;-29
2022/05/05 07:34:18;;;;;;;14.80;7.90;;;19.40;43.70;;;;;;5095159;28;20410;-31
2022/05/05 07:36:44;;;;;;;10.45;7.13;;;19.40;43.80;;;;;;5095373;28;20199;-29
2022/05/05 07:39:10;;;;;;;8.65;6.22;;;19.40;43.50;;;;;;5095604;28;20255;-30
2022/05/05 07:41:36;;;;;;;9.60;6.87;;;19.50;43.80;;;;;;5096044;28;20663;-31
2022/05/05 07:44:04;;;;;;;11.63;8.20;;;19.50;44.00;;;;;;5096176;28;20402;-30
2022/05/05 07:46:30;;;;;;;9.52;7.00;;;19.40;44.30;;;;;;5096294;28;20409;-30
2022/05/05 07:48:56;;;;;;;13.05;7.25;;;19.50;43.90;;;;;;5094889;28;20252;-31
2022/05/05 07:51:22;;;;;;;11.87;7.80;;;19.40;43.50;;;;;;5094287;28;20686;-30
2022/05/05 07:54:34;;;;;;;18.20;8.17;;;19.50;43.70;;;;;;5094747;28;20228;-30
2022/05/05 07:56:33;;;;;;;10.48;7.50;;;19.50;43.30;;;;;;5094323;28;20168;-29
2022/05/05 07:58:59;;;;;;;10.97;7.50;;;19.70;43.40;;;;;;5094632;28;20176;-29
2022/05/05 08:01:26;;;;;;;11.70;7.77;;;19.70;43.20;;;;;;5094250;28;20851;-29
2022/05/05 08:03:52;;;;;;;12.15;9.20;;;19.80;43.20;;;;;;5094506;28;20412;-30
2022/05/05 08:06:18;;;;;;;7.95;6.95;;;19.90;43.20;;;;;;5094456;28;20172;-30
2022/05/05 08:08:44;;;;;;;10.83;8.07;;;20.00;43.40;;;;;;5094319;28;20196;-31
2022/05/05 08:11:09;;;;;;;10.07;7.33;;;20.10;43.20;;;;;;5093824;28;20208;-29
2022/05/05 08:13:35;;;;;;;7.97;5.77;;;20.30;43.00;;;;;;5094448;28;20254;-30
2022/05/05 08:16:01;;;;;;;9.40;6.60;;;20.40;42.70;;;;;;5094212;28;20398;-30
2022/05/05 08:18:27;;;;;;;10.60;6.97;;;20.50;42.30;;;;;;5094127;28;20410;-30
2022/05/05 08:20:53;;;;;;;12.93;6.70;;;20.60;42.00;;;;;;5094005;28;20253;-30
2022/05/05 08:23:19;;;;;;;10.43;7.30;;;20.70;41.70;;;;;;5094084;28;20183;-31
2022/05/05 08:28:29;;;;;;;9.30;6.85;;;20.80;41.50;;;;;;5093974;28;20207;-30
2022/05/05 08:30:56;;;;;;;9.80;7.33;;;20.80;41.60;;;;;;5093798;28;20719;-31
2022/05/05 08:33:24;;;;;;;13.70;6.82;;;21.00;41.50;;;;;;5093789;28;20531;-31
2022/05/05 08:35:50;;;;;;;10.18;8.23;;;21.00;41.50;;;;;;5093746;28;20180;-30
2022/05/05 08:38:17;;;;;;;7.33;6.37;;;21.10;41.30;;;;;;5093596;28;20211;-31
2022/05/05 08:40:43;;;;;;;9.45;7.07;;;21.10;41.00;;;;;;5092832;28;20426;-31
2022/05/05 08:43:09;;;;;;;16.27;8.17;;;21.10;40.60;;;;;;5093030;28;20211;-29
2022/05/05 08:45:37;;;;;;;6.53;5.63;;;21.30;40.90;;;;;;5093682;28;20493;-29
2022/05/05 08:48:13;;;;;;;13.43;7.97;;;21.60;41.10;;;;;;5093572;28;20278;-29
2022/05/05 08:50:41;;;;;;;10.10;7.05;;;21.90;40.90;;;;;;5093170;28;20418;-31
2022/05/05 08:53:07;;;;;;;10.47;7.80;;;22.20;40.20;;;;;;5093454;28;20704;-29
2022/05/05 08:55:34;;;;;;;9.37;6.67;;;22.50;39.40;;;;;;5093696;28;20422;-29
2022/05/05 08:58:01;;;;;;;9.67;6.20;;;22.70;39.30;;;;;;5093351;28;20416;-30
2022/05/05 09:00:27;;;;;;;8.27;7.27;;;22.90;39.50;;;;;;5093060;28;20422;-31
2022/05/05 09:03:00;;;;;;;10.30;7.90;;;23.20;38.70;;;;;;5093308;28;20409;-30
2022/05/05 09:05:44;;;;;;;11.50;8.00;;;23.50;38.90;;;;;;5093246;28;20410;-29
2022/05/05 09:08:25;;;;;;;7.17;6.47;;;23.70;37.70;;;;;;5093194;28;20464;-29
2022/05/05 09:10:51;;;;;;;11.63;8.13;;;24.00;38.40;;;;;;5092696;28;20449;-30
2022/05/05 09:13:26;;;;;;;10.00;7.67;;;24.30;38.80;;;;;;5092984;28;20493;-31
2022/05/05 09:15:53;;;;;;;11.90;7.57;;;24.60;37.30;;;;;;5092917;28;20747;-30
2022/05/05 09:18:25;;;;;;;9.87;7.33;;;24.70;34.80;;;;;;5093124;28;20485;-30
2022/05/05 09:20:51;;;;;;;12.00;7.00;;;24.50;33.90;;;;;;5092707;28;20896;-31
2022/05/05 09:23:37;;;;;;;9.70;7.00;;;24.50;36.20;;;;;;5093127;28;20822;-30
2022/05/05 09:26:10;;;;;;;8.77;6.63;;;24.70;36.30;;;;;;5093199;28;20402;-30
2022/05/05 09:28:36;;;;;;;8.20;6.60;;;24.80;36.10;;;;;;5092977;28;20464;-29
2022/05/05 09:31:06;;;;;;;9.17;6.50;;;24.70;33.90;;;;;;5092676;28;20458;-29
2022/05/05 09:33:37;;;;;;;7.13;4.90;;;24.30;34.00;;;;;;5092746;28;20444;-30
2022/05/05 09:36:14;;;;;;;5.53;4.73;;;23.90;34.50;;;;;;5092654;28;20408;-30
2022/05/05 09:38:58;;;;;;;7.67;5.20;;;23.60;34.60;;;;;;5092515;28;20405;-29
2022/05/05 09:41:28;;;;;;;6.07;5.07;;;23.50;35.80;;;;;;5092436;28;20426;-31
2022/05/05 09:43:56;;;;;;;7.53;5.37;;;23.50;36.30;;;;;;5092698;28;20499;-30
2022/05/05 09:46:25;;;;;;;7.30;6.20;;;23.50;35.80;;;;;;5092590;28;20406;-30
2022/05/05 09:48:52;;;;;;;8.00;4.40;;;23.60;35.60;;;;;;5092303;28;21058;-30
2022/05/05 09:51:18;;;;;;;6.07;4.67;;;23.90;36.30;;;;;;5092069;28;20433;-30
2022/05/05 09:59:40;;;;;;;6.30;5.00;;;25.20;34.40;;;;;;5037256;28;20510;-31
2022/05/05 10:05:16;;;;;;;5.00;4.00;;;25.30;31.90;;;;;;5037585;28;20443;-30
2022/05/05 10:07:44;;;;;;;6.50;5.00;;;25.20;32.40;;;;;;5040563;28;20457;-30
2022/05/05 10:10:15;;;;;;;5.77;4.43;;;25.10;33.00;;;;;;5045544;28;20456;-31
2022/05/05 10:12:41;;;;;;;8.23;4.90;;;25.10;32.90;;;;;;5042386;28;20777;-31
2022/05/05 10:15:11;;;;;;;5.67;4.10;;;25.00;32.50;;;;;;5046284;28;20432;-31
2022/05/05 10:17:37;;;;;;;6.60;4.37;;;25.00;32.90;;;;;;5038744;28;20428;-31
2022/05/05 10:20:04;;;;;;;4.53;4.10;;;25.10;33.20;;;;;;5029684;28;20439;-30
2022/05/05 10:22:48;;;;;;;5.73;4.27;;;25.20;31.40;;;;;;5029432;28;20425;-31
2022/05/05 10:25:20;;;;;;;4.77;3.63;;;25.20;31.80;;;;;;5063541;22;21036;-34
2022/05/05 10:27:45;;;;;;;5.57;3.80;;;25.50;33.20;;;;;;5072181;28;20490;-34
2022/05/05 10:30:16;;;;;;;5.07;4.43;;;25.90;32.60;;;;;;5071806;28;20759;-34
2022/05/05 10:32:42;;;;;;;5.07;3.83;;;26.10;31.70;;;;;;5071614;28;20169;-34
2022/05/05 10:35:11;;;;;;;8.20;4.20;;;26.00;30.50;;;;;;5071857;28;20419;-34
2022/05/05 10:37:38;;;;;;;4.57;3.53;;;25.90;30.80;;;;;;5071747;28;20999;-33
2022/05/05 10:40:08;;;;;;;3.60;3.23;;;25.90;30.10;;;;;;5071763;28;20456;-34
2022/05/05 10:42:45;;;;;;;5.00;2.83;;;25.80;30.70;;;;;;5071593;28;20403;-34
2022/05/05 10:45:14;;;;;;;4.83;3.80;;;25.80;30.80;;;;;;5071472;28;20422;-36
2022/05/05 10:47:55;;;;;;;4.00;3.27;;;25.90;29.30;;;;;;5071579;28;20446;-34
2022/05/05 10:50:49;;;;;;;6.13;4.00;;;25.90;29.20;;;;;;5071487;28;20889;-34
2022/05/05 10:53:33;;;;;;;4.53;3.73;;;26.10;30.20;;;;;;5071449;28;20873;-34
2022/05/05 10:56:02;;;;;;;8.13;4.97;;;26.40;29.80;;;;;;5071709;28;20510;-34
2022/05/05 10:59:00;;;;;;;5.37;3.57;;;26.60;30.10;;;;;;5071643;28;20403;-35
2022/05/05 11:01:27;;;;;;;4.33;3.93;;;26.70;29.70;;;;;;5071714;28;20414;-35
2022/05/05 11:04:11;;;;;;;4.17;3.77;;;26.60;30.10;;;;;;5071473;28;20456;-34
2022/05/05 11:06:38;;;;;;;4.83;2.90;;;26.60;29.80;;;;;;5075213;28;20415;-34
2022/05/05 11:09:05;;;;;;;5.93;4.30;;;26.50;30.00;;;;;;5075149;28;20454;-34
2022/05/05 11:11:45;;;;;;;4.80;3.80;;;26.30;30.20;;;;;;5074897;28;20410;-34
2022/05/05 11:23:07;;;;;;;4.77;3.83;;;26.00;30.90;;;;;;5075148;28;20417;-34
2022/05/05 11:25:33;;;;;;;6.43;4.17;;;25.80;30.30;;;;;;5074609;28;20450;-34
2022/05/05 11:27:59;;;;;;;4.87;3.40;;;25.70;30.70;;;;;;5074581;28;20446;-34
2022/05/05 11:30:25;;;;;;;4.27;3.63;;;25.60;30.70;;;;;;5074657;28;20169;-34
2022/05/05 11:32:50;;;;;;;5.90;3.60;;;25.50;30.60;;;;;;5074773;28;20176;-34
2022/05/05 11:35:22;;;;;;;7.47;3.57;;;25.40;30.50;;;;;;5074455;28;20192;-34
2022/05/05 11:37:49;;;;;;;5.60;4.00;;;25.40;29.90;;;;;;5074506;28;20717;-34
2022/05/05 11:40:14;;;;;;;3.80;3.40;;;25.60;30.60;;;;;;5074614;28;20887;-34
2022/05/05 11:45:28;;;;;;;6.93;3.73;;;26.00;30.20;;;;;;5074317;28;20830;-34
2022/05/05 11:47:54;;;;;;;5.73;3.67;;;26.10;29.90;;;;;;5074343;28;20447;-34
2022/05/05 11:50:20;;;;;;;4.57;3.33;;;26.00;30.00;;;;;;5074343;28;20165;-34
2022/05/05 11:52:46;;;;;;;5.10;3.50;;;25.90;30.10;;;;;;5074200;28;20460;-34
2022/05/05 11:55:13;;;;;;;5.07;3.60;;;25.90;30.60;;;;;;5074236;28;20446;-34
2022/05/05 11:57:45;;;;;;;5.30;3.97;;;25.90;30.30;;;;;;5074283;28;20200;-34
2022/05/05 12:02:57;;;;;;;5.90;3.27;;;25.80;29.80;;;;;;5074285;28;20453;-34
2022/05/05 12:05:25;;;;;;;6.27;3.47;;;25.80;30.00;;;;;;5074069;28;20426;-35
2022/05/05 12:07:52;;;;;;;5.23;3.60;;;25.70;30.00;;;;;;5073888;28;20807;-35
2022/05/05 12:10:19;;;;;;;3.70;2.80;;;25.70;29.90;;;;;;5073988;28;20411;-34
2022/05/05 12:12:47;;;;;;;5.10;3.83;;;25.60;30.10;;;;;;5073811;28;20415;-34
2022/05/05 12:15:16;;;;;;;3.93;3.53;;;25.70;29.90;;;;;;5073483;28;20441;-34
2022/05/05 12:17:50;;;;;;;3.80;3.10;;;25.90;30.00;;;;;;5073102;28;20403;-34
2022/05/05 12:20:18;;;;;;;5.07;3.93;;;26.20;30.20;;;;;;5073786;28;20893;-34
2022/05/05 12:22:56;;;;;;;4.10;3.27;;;26.50;29.70;;;;;;5073623;28;20410;-35
2022/05/05 12:25:24;;;;;;;4.30;3.30;;;26.80;26.40;;;;;;5073815;28;20458;-34
2022/05/05 12:27:58;;;;;;;5.27;3.37;;;26.70;26.30;;;;;;5073671;28;20544;-34
2022/05/05 12:30:33;;;;;;;3.73;3.33;;;26.50;25.10;;;;;;5073481;28;20405;-34
2022/05/05 12:32:59;;;;;;;4.80;3.40;;;26.30;27.50;;;;;;5073523;28;20754;-34
2022/05/05 12:35:32;;;;;;;3.83;2.93;;;26.30;28.40;;;;;;5073472;28;20423;-35
2022/05/05 12:37:59;;;;;;;4.00;3.60;;;26.50;29.10;;;;;;5073440;28;20188;-34
2022/05/05 12:40:25;;;;;;;3.93;2.97;;;26.80;28.50;;;;;;5073474;28;20433;-34
2022/05/05 12:43:08;;;;;;;8.00;3.70;;;26.90;28.40;;;;;;5073570;28;20415;-35
2022/05/05 12:45:36;;;;;;;5.30;3.53;;;27.00;27.90;;;;;;5073281;28;20434;-34
2022/05/05 12:48:04;;;;;;;3.97;3.57;;;27.10;28.40;;;;;;5073061;28;20450;-35
2022/05/05 12:50:33;;;;;;;3.90;2.80;;;27.30;27.80;;;;;;5073172;28;20439;-34
2022/05/05 13:01:46;;;;;;;3.83;2.87;;;28.00;27.10;;;;;;5073152;28;20443;-34
2022/05/05 13:04:15;;;;;;;4.17;3.40;;;28.10;27.90;;;;;;5073045;28;20415;-34
2022/05/05 13:06:42;;;;;;;5.00;3.90;;;28.30;27.60;;;;;;5072898;28;20414;-34
2022/05/05 13:09:09;;;;;;;3.73;3.33;;;28.40;26.70;;;;;;5073257;28;20446;-34
2022/05/05 13:11:36;;;;;;;6.30;4.13;;;28.30;26.70;;;;;;5072619;28;20398;-34
2022/05/05 13:14:02;;;;;;;5.30;3.40;;;28.20;26.40;;;;;;5072799;28;20464;-34
2022/05/05 13:16:30;;;;;;;5.37;3.50;;;28.10;26.60;;;;;;5073009;28;20802;-34
2022/05/05 13:18:57;;;;;;;5.53;4.10;;;28.00;26.20;;;;;;5072573;28;20410;-34
2022/05/05 13:21:24;;;;;;;4.23;3.83;;;28.10;27.50;;;;;;5072258;28;20821;-34
2022/05/05 13:23:49;;;;;;;7.77;2.80;;;27.90;25.10;;;;;;5072671;28;20403;-34
2022/05/05 13:26:15;;;;;;;6.10;3.57;;;28.00;27.40;;;;;;5072393;28;21055;-35
2022/05/05 13:28:41;;;;;;;4.83;3.30;;;28.10;27.50;;;;;;5072052;28;20458;-35
2022/05/05 13:31:06;;;;;;;7.70;3.80;;;28.20;26.30;;;;;;5072276;28;20579;-35
2022/05/05 13:33:32;;;;;;;4.90;4.00;;;28.20;26.30;;;;;;5072392;28;20168;-35
2022/05/05 13:35:59;;;;;;;5.10;3.43;;;27.90;24.70;;;;;;5072322;28;20656;-35